ADDS TAF Board (Experimental) INFO Settings

IDs: Format: Expanded Condensed

KDTW - Detroit Metro/Wayne, MI, US

Issued at 1423 UTC 27 Mar 2015
Updated at: 1718 UTC 27 Mar 2015
Time1653Z 27/18Z 27/19Z 27/20Z 27/21Z 27/22Z 27/23Z 28/00Z 28/01Z 28/02Z 28/03Z 28/04Z 28/05Z 28/06Z
Type OBS PRVL
  [TEMP]  
PRVL PRVL PRVL PRVL PRVL PRVL PRVL PRVL PRVL PRVL PRVL PRVL
VIS 4 6
  [3]  
6 6 6 6 6 6 6 >6 >6 >6 >6 >6
CIG 35 45
  [25]  
35 35 35 35 35 35 35 25 25 25 25 25
Cover OVC OVC
  [BKN]  
OVC OVC OVC OVC OVC OVC OVC OVC OVC OVC OVC OVC
FltCat MVFR VFR
  [MVFR]  
VFR VFR VFR VFR VFR VFR VFR MVFR MVFR MVFR MVFR MVFR
WX -SN -SN
  [-SN]  
-SHSN -SHSN -SHSN -SHSN -SHSN -SHSN -SHSN -- -- -- -- --
WDir 350 330
[330]
10 10 10 10 10 10 10 340 340 340 340 340
WSpd 12 13
  [13]  
10 10 10 10 10 10 10 6 6 6 6 6
WGst -- 20
  [20]  
-- -- -- -- -- -- -- -- -- -- -- --
R03/21
XWnd 8 11 3 3 3 3 3 3 3 5 5 5 5 5
XGst -- 17 -- -- -- -- -- -- -- -- -- -- -- --
HWnd 9 7 9 9 9 9 9 9 9 4 4 4 4 4
HGst -- 10 -- -- -- -- -- -- -- -- -- -- -- --
R04/22
XWnd 8 11 3 3 3 3 3 3 3 5 5 5 5 5
XGst -- 17 -- -- -- -- -- -- -- -- -- -- -- --
HWnd 9 7 9 9 9 9 9 9 9 4 4 4 4 4
HGst -- 10 -- -- -- -- -- -- -- -- -- -- -- --
R09/27
XWnd 12 11 10 10 10 10 10 10 10 6 6 6 6 6
XGst -- 17 -- -- -- -- -- -- -- -- -- -- -- --
HWnd -2 -6 2 2 2 2 2 2 2 -2 -2 -2 -2 -2
HGst -- -10 -- -- -- -- -- -- -- -- -- -- -- --

NOTE: TEMPO conditions in [brackets]. Keep in mind TEMPO conditions might be better (lower impact) than prevailing conditions.

Raw TAF
KDTW 271423Z 2714/2818 33013G20KT 6SM -SN SCT030 OVC045
  TEMPO 2715/2719 3SM -SN BKN025
  FM271900 01010KT 6SM -SHSN OVC035
  FM280200 34006KT P6SM OVC025


Raw METAR
KDTW 271653Z 35012KT 4SM -SN SCT025 BKN035 OVC045 M03/M11 A3002 RMK AO2 SLP174 P0000 T10331106
KDTW 271553Z 34009KT 9SM -SN BKN030 OVC040 M03/M10 A3002 RMK AO2 SLP173 P0000 T10281100
KDTW 271500Z 31012G18KT 9SM -SN BKN030 OVC050 M03/M11 A3002 RMK AO2 P0000
KDTW 271453Z 31010KT 9SM -SN BKN027 OVC045 M03/M11 A3002 RMK AO2 SLP173 P0000 60000 T10331106 53006

METAR Board
Radar Display
Forecast Discussion

TAF Board Legend

Potential Impact
Threat None Slight Moderate High
Visibility (sm) ≥5.1 5.1>X≥3 3>X≥1 <1
Ceiling (100 ft) ≥30.1 30.1>X≥10 10>X≥5 <5
Wind Speed (kt) <10 10≤X<20 20≤X<30 ≥30
Wind Gust (kt) <15 15≤X<25 25≤X<35 ≥35
Weather No Wx Reported VCTS,-TS,-FZRA,SN TS,FZRA +TS,+FZRA,+SN